sensor_id;sensor_type;location;lat;lon;timestamp;pressure;altitude;pressure_sealevel;temperature;humidity
18749;BME280;9503;53.560;10.246;2022-09-16T00:01:34;99856.69;;;11.83;100.00
18749;BME280;9503;53.560;10.246;2022-09-16T00:04:01;99855.06;;;11.87;100.00
18749;BME280;9503;53.560;10.246;2022-09-16T00:06:28;99850.50;;;11.78;100.00
18749;BME280;9503;53.560;10.246;2022-09-16T00:08:56;99852.94;;;11.74;100.00
18749;BME280;9503;53.560;10.246;2022-09-16T00:11:27;99855.50;;;11.74;100.00
18749;BME280;9503;53.560;10.246;2022-09-16T00:13:53;99857.56;;;11.84;100.00
18749;BME280;9503;53.560;10.246;2022-09-16T00:16:22;99856.81;;;11.88;100.00
18749;BME280;9503;53.560;10.246;2022-09-16T00:18:52;99858.16;;;11.75;100.00
18749;BME280;9503;53.560;10.246;2022-09-16T00:21:19;99858.47;;;11.86;100.00
18749;BME280;9503;53.560;10.246;2022-09-16T00:23:45;99860.03;;;11.81;100.00
18749;BME280;9503;53.560;10.246;2022-09-16T00:26:12;99864.94;;;11.75;100.00
18749;BME280;9503;53.560;10.246;2022-09-16T00:28:40;99864.03;;;11.73;100.00
18749;BME280;9503;53.560;10.246;2022-09-16T00:31:06;99861.41;;;11.70;100.00
18749;BME280;9503;53.560;10.246;2022-09-16T00:33:33;99859.91;;;11.78;100.00
18749;BME280;9503;53.560;10.246;2022-09-16T00:36:04;99852.03;;;11.72;100.00
18749;BME280;9503;53.560;10.246;2022-09-16T00:38:31;99848.75;;;11.76;100.00
18749;BME280;9503;53.560;10.246;2022-09-16T00:40:58;99847.53;;;11.65;100.00
18749;BME280;9503;53.560;10.246;2022-09-16T00:43:24;99851.59;;;11.85;100.00
18749;BME280;9503;53.560;10.246;2022-09-16T00:45:55;99844.25;;;11.69;100.00
18749;BME280;9503;53.560;10.246;2022-09-16T00:48:23;99852.06;;;11.73;100.00
18749;BME280;9503;53.560;10.246;2022-09-16T00:50:55;99859.31;;;11.85;100.00
18749;BME280;9503;53.560;10.246;2022-09-16T00:53:25;99869.19;;;12.01;100.00
18749;BME280;9503;53.560;10.246;2022-09-16T00:55:53;99881.34;;;12.07;100.00
18749;BME280;9503;53.560;10.246;2022-09-16T00:58:25;99869.97;;;11.99;100.00
18749;BME280;9503;53.560;10.246;2022-09-16T01:00:54;99869.19;;;12.01;100.00
18749;BME280;9503;53.560;10.246;2022-09-16T01:03:22;99865.44;;;12.20;100.00
18749;BME280;9503;53.560;10.246;2022-09-16T01:05:49;99866.78;;;12.07;100.00
18749;BME280;9503;53.560;10.246;2022-09-16T01:08:15;99856.38;;;12.03;100.00
18749;BME280;9503;53.560;10.246;2022-09-16T01:10:42;99857.00;;;11.94;100.00
18749;BME280;9503;53.560;10.246;2022-09-16T01:13:11;99862.56;;;12.09;100.00
18749;BME280;9503;53.560;10.246;2022-09-16T01:15:44;99869.97;;;11.99;100.00
18749;BME280;9503;53.560;10.246;2022-09-16T01:18:22;99870.81;;;11.98;100.00
18749;BME280;9503;53.560;10.246;2022-09-16T01:21:02;99880.88;;;12.20;100.00
18749;BME280;9503;53.560;10.246;2022-09-16T01:23:55;99873.75;;;12.41;100.00
18749;BME280;9503;53.560;10.246;2022-09-16T01:26:53;99864.81;;;12.29;100.00
18749;BME280;9503;53.560;10.246;2022-09-16T01:29:41;99857.88;;;12.26;100.00
18749;BME280;9503;53.560;10.246;2022-09-16T01:32:17;99855.94;;;12.17;100.00
18749;BME280;9503;53.560;10.246;2022-09-16T01:34:52;99857.59;;;12.15;100.00
18749;BME280;9503;53.560;10.246;2022-09-16T01:37:28;99870.69;;;12.25;100.00
18749;BME280;9503;53.560;10.246;2022-09-16T01:40:03;99876.38;;;12.44;100.00
18749;BME280;9503;53.560;10.246;2022-09-16T01:42:38;99862.16;;;12.26;100.00
18749;BME280;9503;53.560;10.246;2022-09-16T01:45:16;99865.22;;;12.44;100.00
18749;BME280;9503;53.560;10.246;2022-09-16T01:47:50;99865.88;;;12.37;100.00
18749;BME280;9503;53.560;10.246;2022-09-16T01:50:24;99866.25;;;12.19;100.00
18749;BME280;9503;53.560;10.246;2022-09-16T01:52:58;99869.00;;;11.95;100.00
18749;BME280;9503;53.560;10.246;2022-09-16T01:55:29;99867.44;;;12.00;100.00
18749;BME280;9503;53.560;10.246;2022-09-16T01:58:01;99856.31;;;12.00;100.00
18749;BME280;9503;53.560;10.246;2022-09-16T02:00:29;99856.56;;;12.09;100.00
18749;BME280;9503;53.560;10.246;2022-09-16T02:03:01;99855.06;;;11.87;100.00
18749;BME280;9503;53.560;10.246;2022-09-16T02:05:32;99852.31;;;12.11;100.00
18749;BME280;9503;53.560;10.246;2022-09-16T02:08:03;99844.19;;;11.96;100.00
18749;BME280;9503;53.560;10.246;2022-09-16T02:10:34;99840.03;;;11.99;100.00
18749;BME280;9503;53.560;10.246;2022-09-16T02:13:09;99834.53;;;11.87;100.00
18749;BME280;9503;53.560;10.246;2022-09-16T02:15:37;99840.94;;;11.73;100.00
18749;BME280;9503;53.560;10.246;2022-09-16T02:18:09;99834.63;;;11.61;100.00
18749;BME280;9503;53.560;10.246;2022-09-16T02:20:39;99843.09;;;11.59;100.00
18749;BME280;9503;53.560;10.246;2022-09-16T02:23:12;99841.38;;;11.59;100.00
18749;BME280;9503;53.560;10.246;2022-09-16T02:25:41;99838.75;;;11.56;100.00
18749;BME280;9503;53.560;10.246;2022-09-16T02:28:11;99844.59;;;11.52;100.00
18749;BME280;9503;53.560;10.246;2022-09-16T02:30:42;99831.47;;;11.42;100.00
18749;BME280;9503;53.560;10.246;2022-09-16T02:33:11;99831.75;;;11.52;100.00
18749;BME280;9503;53.560;10.246;2022-09-16T02:35:43;99827.50;;;11.53;100.00
18749;BME280;9503;53.560;10.246;2022-09-16T02:38:14;99827.91;;;11.38;100.00
18749;BME280;9503;53.560;10.246;2022-09-16T02:40:45;99836.63;;;11.43;100.00
18749;BME280;9503;53.560;10.246;2022-09-16T02:43:12;99834.28;;;11.51;100.00
18749;BME280;9503;53.560;10.246;2022-09-16T02:45:46;99835.47;;;11.60;100.00
18749;BME280;9503;53.560;10.246;2022-09-16T02:48:24;99843.06;;;11.57;100.00
18749;BME280;9503;53.560;10.246;2022-09-16T02:51:01;99830.22;;;11.57;100.00
18749;BME280;9503;53.560;10.246;2022-09-16T02:53:39;99841.91;;;11.76;100.00
18749;BME280;9503;53.560;10.246;2022-09-16T02:56:13;99849.75;;;11.81;100.00
18749;BME280;9503;53.560;10.246;2022-09-16T02:58:40;99841.78;;;11.73;100.00
18749;BME280;9503;53.560;10.246;2022-09-16T03:01:10;99834.34;;;11.81;100.00
18749;BME280;9503;53.560;10.246;2022-09-16T03:03:38;99827.16;;;11.69;100.00
18749;BME280;9503;53.560;10.246;2022-09-16T03:06:14;99829.56;;;11.65;100.00
18749;BME280;9503;53.560;10.246;2022-09-16T03:08:42;99834.41;;;11.54;100.00
18749;BME280;9503;53.560;10.246;2022-09-16T03:11:20;99828.31;;;11.52;100.00
18749;BME280;9503;53.560;10.246;2022-09-16T03:13:53;99829.75;;;11.42;100.00
18749;BME280;9503;53.560;10.246;2022-09-16T03:16:28;99813.97;;;11.58;100.00
18749;BME280;9503;53.560;10.246;2022-09-16T03:19:10;99820.47;;;11.46;100.00
18749;BME280;9503;53.560;10.246;2022-09-16T03:21:46;99824.72;;;11.45;100.00
18749;BME280;9503;53.560;10.246;2022-09-16T03:24:23;99820.81;;;11.58;100.00
18749;BME280;9503;53.560;10.246;2022-09-16T03:26:57;99819.75;;;11.51;100.00
18749;BME280;9503;53.560;10.246;2022-09-16T03:29:27;99817.38;;;11.57;100.00
18749;BME280;9503;53.560;10.246;2022-09-16T03:31:59;99812.66;;;11.71;100.00
18749;BME280;9503;53.560;10.246;2022-09-16T03:34:32;99820.09;;;11.62;100.00
18749;BME280;9503;53.560;10.246;2022-09-16T03:37:02;99822.00;;;11.69;100.00
18749;BME280;9503;53.560;10.246;2022-09-16T03:39:31;99819.06;;;11.57;100.00
18749;BME280;9503;53.560;10.246;2022-09-16T03:41:59;99816.97;;;11.44;100.00
18749;BME280;9503;53.560;10.246;2022-09-16T03:44:31;99815.09;;;11.38;100.00
18749;BME280;9503;53.560;10.246;2022-09-16T03:46:58;99812.22;;;11.27;100.00
18749;BME280;9503;53.560;10.246;2022-09-16T03:49:24;99814.69;;;11.24;100.00
18749;BME280;9503;53.560;10.246;2022-09-16T03:51:52;99799.38;;;11.27;100.00
18749;BME280;9503;53.560;10.246;2022-09-16T03:54:19;99807.66;;;11.19;100.00
18749;BME280;9503;53.560;10.246;2022-09-16T03:56:45;99804.31;;;11.21;100.00
18749;BME280;9503;53.560;10.246;2022-09-16T03:59:12;99797.28;;;11.16;100.00
18749;BME280;9503;53.560;10.246;2022-09-16T04:01:38;99799.81;;;11.14;100.00
18749;BME280;9503;53.560;10.246;2022-09-16T04:04:05;99805.09;;;11.19;100.00
18749;BME280;9503;53.560;10.246;2022-09-16T04:06:31;99809.59;;;11.26;100.00
18749;BME280;9503;53.560;10.246;2022-09-16T04:09:01;99808.72;;;11.25;100.00
18749;BME280;9503;53.560;10.246;2022-09-16T04:11:27;99803.28;;;11.16;100.00
18749;BME280;9503;53.560;10.246;2022-09-16T04:13:56;99802.63;;;11.22;100.00
18749;BME280;9503;53.560;10.246;2022-09-16T04:16:22;99816.28;;;11.21;100.00
18749;BME280;9503;53.560;10.246;2022-09-16T04:18:49;99809.50;;;11.23;100.00
18749;BME280;9503;53.560;10.246;2022-09-16T04:21:16;99820.22;;;11.38;100.00
18749;BME280;9503;53.560;10.246;2022-09-16T04:23:43;99827.75;;;11.32;100.00
18749;BME280;9503;53.560;10.246;2022-09-16T04:26:11;99814.25;;;11.68;100.00
18749;BME280;9503;53.560;10.246;2022-09-16T04:28:37;99799.97;;;11.47;100.00
18749;BME280;9503;53.560;10.246;2022-09-16T04:31:06;99798.09;;;11.42;100.00
18749;BME280;9503;53.560;10.246;2022-09-16T04:33:34;99809.22;;;11.42;100.00
18749;BME280;9503;53.560;10.246;2022-09-16T04:36:03;99799.59;;;11.35;100.00
18749;BME280;9503;53.560;10.246;2022-09-16T04:38:29;99784.84;;;11.28;100.00
18749;BME280;9503;53.560;10.246;2022-09-16T04:41:00;99782.84;;;11.18;100.00
18749;BME280;9503;53.560;10.246;2022-09-16T04:43:28;99797.63;;;11.26;100.00
18749;BME280;9503;53.560;10.246;2022-09-16T04:45:54;99790.66;;;11.22;100.00
18749;BME280;9503;53.560;10.246;2022-09-16T04:48:21;99789.72;;;11.19;100.00
18749;BME280;9503;53.560;10.246;2022-09-16T04:50:47;99797.63;;;11.26;100.00
18749;BME280;9503;53.560;10.246;2022-09-16T04:53:14;99793.09;;;11.18;100.00
18749;BME280;9503;53.560;10.246;2022-09-16T04:55:41;99785.22;;;11.12;100.00
18749;BME280;9503;53.560;10.246;2022-09-16T04:58:07;99783.69;;;11.17;100.00
18749;BME280;9503;53.560;10.246;2022-09-16T05:00:35;99775.91;;;11.15;100.00
18749;BME280;9503;53.560;10.246;2022-09-16T05:03:01;99786.81;;;11.08;100.00
18749;BME280;9503;53.560;10.246;2022-09-16T05:05:28;99786.63;;;11.02;100.00
18749;BME280;9503;53.560;10.246;2022-09-16T05:07:54;99782.06;;;11.20;100.00
18749;BME280;9503;53.560;10.246;2022-09-16T05:10:21;99782.22;;;11.25;100.00
18749;BME280;9503;53.560;10.246;2022-09-16T05:12:50;99791.63;;;11.26;100.00
18749;BME280;9503;53.560;10.246;2022-09-16T05:15:16;99785.97;;;11.38;100.00
18749;BME280;9503;53.560;10.246;2022-09-16T05:17:44;99791.25;;;11.42;100.00
18749;BME280;9503;53.560;10.246;2022-09-16T05:20:11;99800.72;;;11.73;100.00
18749;BME280;9503;53.560;10.246;2022-09-16T05:22:38;99793.28;;;11.82;100.00
18749;BME280;9503;53.560;10.246;2022-09-16T05:25:05;99793.47;;;11.60;100.00
18749;BME280;9503;53.560;10.246;2022-09-16T05:27:32;99784.25;;;11.67;100.00
18749;BME280;9503;53.560;10.246;2022-09-16T05:30:00;99777.94;;;11.54;100.00
18749;BME280;9503;53.560;10.246;2022-09-16T05:32:26;99783.81;;;11.51;100.00
18749;BME280;9503;53.560;10.246;2022-09-16T05:34:54;99789.53;;;11.41;100.00
18749;BME280;9503;53.560;10.246;2022-09-16T05:37:20;99791.75;;;11.30;100.00
18749;BME280;9503;53.560;10.246;2022-09-16T05:39:47;99788.16;;;11.24;100.00
18749;BME280;9503;53.560;10.246;2022-09-16T05:42:13;99791.41;;;11.47;100.00
18749;BME280;9503;53.560;10.246;2022-09-16T05:44:40;99791.91;;;11.35;100.00
18749;BME280;9503;53.560;10.246;2022-09-16T05:47:06;99789.94;;;11.55;100.00
18749;BME280;9503;53.560;10.246;2022-09-16T05:49:33;99782.28;;;11.56;100.00
18749;BME280;9503;53.560;10.246;2022-09-16T05:52:01;99794.81;;;11.76;100.00
18749;BME280;9503;53.560;10.246;2022-09-16T05:54:28;99792.94;;;12.00;100.00
18749;BME280;9503;53.560;10.246;2022-09-16T05:56:55;99787.63;;;12.26;100.00
18749;BME280;9503;53.560;10.246;2022-09-16T05:59:22;99787.81;;;12.33;100.00
18749;BME280;9503;53.560;10.246;2022-09-16T06:01:48;99792.72;;;12.24;100.00
18749;BME280;9503;53.560;10.246;2022-09-16T06:04:15;99793.41;;;12.50;100.00
18749;BME280;9503;53.560;10.246;2022-09-16T06:06:43;99790.66;;;12.11;100.00
18749;BME280;9503;53.560;10.246;2022-09-16T06:09:13;99787.66;;;11.96;100.00
18749;BME280;9503;53.560;10.246;2022-09-16T06:11:41;99787.22;;;12.10;100.00
18749;BME280;9503;53.560;10.246;2022-09-16T06:14:09;99781.28;;;12.81;100.00
18749;BME280;9503;53.560;10.246;2022-09-16T06:16:36;99783.41;;;12.98;100.00
18749;BME280;9503;53.560;10.246;2022-09-16T06:19:05;99780.28;;;12.74;100.00
18749;BME280;9503;53.560;10.246;2022-09-16T06:21:34;99770.34;;;12.55;100.00
18749;BME280;9503;53.560;10.246;2022-09-16T06:24:01;99782.78;;;12.71;100.00
18749;BME280;9503;53.560;10.246;2022-09-16T06:26:35;99774.94;;;13.03;100.00
18749;BME280;9503;53.560;10.246;2022-09-16T06:29:02;99777.84;;;12.45;100.00
18749;BME280;9503;53.560;10.246;2022-09-16T06:31:30;99774.41;;;12.45;100.00
18749;BME280;9503;53.560;10.246;2022-09-16T06:33:57;99774.56;;;12.51;100.00
18749;BME280;9503;53.560;10.246;2022-09-16T06:36:28;99762.38;;;12.79;100.00
18749;BME280;9503;53.560;10.246;2022-09-16T06:38:55;99766.66;;;13.16;99.70
18749;BME280;9503;53.560;10.246;2022-09-16T06:41:22;99769.06;;;13.08;98.20
18749;BME280;9503;53.560;10.246;2022-09-16T06:43:51;99766.34;;;13.02;99.35
18749;BME280;9503;53.560;10.246;2022-09-16T06:46:21;99763.75;;;13.38;98.07
18749;BME280;9503;53.560;10.246;2022-09-16T06:48:49;99755.28;;;13.06;97.41
18749;BME280;9503;53.560;10.246;2022-09-16T06:51:17;99765.38;;;12.97;97.60
18749;BME280;9503;53.560;10.246;2022-09-16T06:53:45;99754.94;;;12.91;98.31
18749;BME280;9503;53.560;10.246;2022-09-16T06:56:13;99760.34;;;13.02;99.39
18749;BME280;9503;53.560;10.246;2022-09-16T06:58:41;99757.19;;;12.77;99.16
18749;BME280;9503;53.560;10.246;2022-09-16T07:01:11;99761.47;;;12.77;99.34
18749;BME280;9503;53.560;10.246;2022-09-16T07:03:39;99754.38;;;12.66;99.29
18749;BME280;9503;53.560;10.246;2022-09-16T07:06:06;99762.75;;;12.95;99.68
18749;BME280;9503;53.560;10.246;2022-09-16T07:08:35;99756.78;;;12.60;99.46
18749;BME280;9503;53.560;10.246;2022-09-16T07:11:03;99756.16;;;12.70;99.60
18749;BME280;9503;53.560;10.246;2022-09-16T07:13:30;99760.06;;;12.91;99.65
18749;BME280;9503;53.560;10.246;2022-09-16T07:15:58;99761.97;;;12.98;99.38
18749;BME280;9503;53.560;10.246;2022-09-16T07:18:27;99755.06;;;12.97;97.73
18749;BME280;9503;53.560;10.246;2022-09-16T07:20:59;99752.06;;;13.15;97.76
18749;BME280;9503;53.560;10.246;2022-09-16T07:23:27;99746.56;;;13.37;96.67
18749;BME280;9503;53.560;10.246;2022-09-16T07:25:59;99739.94;;;13.50;95.97
18749;BME280;9503;53.560;10.246;2022-09-16T07:28:25;99752.66;;;13.85;95.89
18749;BME280;9503;53.560;10.246;2022-09-16T07:30:52;99750.94;;;13.85;94.57
18749;BME280;9503;53.560;10.246;2022-09-16T07:33:19;99747.38;;;13.78;94.47
18749;BME280;9503;53.560;10.246;2022-09-16T07:35:47;99746.22;;;14.09;93.30
18749;BME280;9503;53.560;10.246;2022-09-16T07:38:13;99758.69;;;13.87;91.56
18749;BME280;9503;53.560;10.246;2022-09-16T07:40:39;99760.59;;;14.45;92.57
18749;BME280;9503;53.560;10.246;2022-09-16T07:43:06;99764.28;;;14.09;91.33
18749;BME280;9503;53.560;10.246;2022-09-16T07:45:33;99764.38;;;14.14;90.84
18749;BME280;9503;53.560;10.246;2022-09-16T07:47:59;99765.13;;;14.10;91.72
18749;BME280;9503;53.560;10.246;2022-09-16T07:50:26;99766.34;;;14.29;90.97
18749;BME280;9503;53.560;10.246;2022-09-16T07:52:54;99759.19;;;14.11;89.51
18749;BME280;9503;53.560;10.246;2022-09-16T07:55:21;99762.78;;;14.22;88.68
18749;BME280;9503;53.560;10.246;2022-09-16T07:57:47;99757.00;;;14.35;89.75
18749;BME280;9503;53.560;10.246;2022-09-16T08:00:14;99752.72;;;14.36;89.87
18749;BME280;9503;53.560;10.246;2022-09-16T08:02:41;99754.41;;;14.32;89.73
18749;BME280;9503;53.560;10.246;2022-09-16T08:05:08;99760.00;;;14.57;88.57
18749;BME280;9503;53.560;10.246;2022-09-16T08:07:34;99763.34;;;14.53;88.77
18749;BME280;9503;53.560;10.246;2022-09-16T08:10:03;99761.31;;;14.86;87.70
18749;BME280;9503;53.560;10.246;2022-09-16T08:12:30;99753.75;;;14.99;85.24
18749;BME280;9503;53.560;10.246;2022-09-16T08:14:59;99771.00;;;15.03;86.48
18749;BME280;9503;53.560;10.246;2022-09-16T08:17:26;99759.09;;;15.11;84.07
18749;BME280;9503;53.560;10.246;2022-09-16T08:19:52;99752.88;;;14.98;84.62
18749;BME280;9503;53.560;10.246;2022-09-16T08:22:19;99762.50;;;15.08;84.31
18749;BME280;9503;53.560;10.246;2022-09-16T08:24:47;99754.34;;;14.81;83.47
18749;BME280;9503;53.560;10.246;2022-09-16T08:27:15;99753.69;;;13.94;87.25
18749;BME280;9503;53.560;10.246;2022-09-16T08:29:42;99754.53;;;14.42;86.83
18749;BME280;9503;53.560;10.246;2022-09-16T08:32:08;99756.66;;;14.64;86.03
18749;BME280;9503;53.560;10.246;2022-09-16T08:34:37;99766.13;;;14.65;84.93
18749;BME280;9503;53.560;10.246;2022-09-16T08:37:04;99763.00;;;14.84;83.04
18749;BME280;9503;53.560;10.246;2022-09-16T08:39:30;99766.50;;;14.88;82.20
18749;BME280;9503;53.560;10.246;2022-09-16T08:42:13;99756.47;;;15.08;81.90
18749;BME280;9503;53.560;10.246;2022-09-16T08:44:50;99762.91;;;15.39;81.11
18749;BME280;9503;53.560;10.246;2022-09-16T08:47:32;99756.78;;;15.32;79.79
18749;BME280;9503;53.560;10.246;2022-09-16T08:50:04;99761.00;;;15.24;80.45
18749;BME280;9503;53.560;10.246;2022-09-16T08:52:37;99770.25;;;15.72;78.89
18749;BME280;9503;53.560;10.246;2022-09-16T08:55:08;99766.53;;;15.52;80.30
18749;BME280;9503;53.560;10.246;2022-09-16T08:57:40;99770.25;;;15.72;81.34
18749;BME280;9503;53.560;10.246;2022-09-16T09:00:14;99767.88;;;15.92;79.71
18749;BME280;9503;53.560;10.246;2022-09-16T09:02:46;99785.31;;;16.10;79.85
18749;BME280;9503;53.560;10.246;2022-09-16T09:05:16;99773.25;;;16.09;79.93
18749;BME280;9503;53.560;10.246;2022-09-16T09:08:04;99765.13;;;15.78;78.25
18749;BME280;9503;53.560;10.246;2022-09-16T09:10:38;99763.28;;;15.65;79.60
18749;BME280;9503;53.560;10.246;2022-09-16T09:13:16;99761.84;;;15.91;79.02
18749;BME280;9503;53.560;10.246;2022-09-16T09:15:51;99764.53;;;16.00;78.26
18749;BME280;9503;53.560;10.246;2022-09-16T09:18:34;99765.53;;;16.15;79.27
18749;BME280;9503;53.560;10.246;2022-09-16T09:21:12;99755.97;;;16.05;78.83
18749;BME280;9503;53.560;10.246;2022-09-16T09:23:54;99747.56;;;16.30;78.96
18749;BME280;9503;53.560;10.246;2022-09-16T09:26:32;99751.06;;;16.32;78.80
18749;BME280;9503;53.560;10.246;2022-09-16T09:29:25;99750.38;;;15.68;79.55
18749;BME280;9503;53.560;10.246;2022-09-16T09:32:05;99740.19;;;15.80;78.46
18749;BME280;9503;53.560;10.246;2022-09-16T09:34:47;99743.88;;;16.02;77.39
18749;BME280;9503;53.560;10.246;2022-09-16T09:37:30;99745.84;;;16.29;nan
18749;BME280;9503;53.560;10.246;2022-09-16T09:40:08;99739.84;;;16.33;76.79
18749;BME280;9503;53.560;10.246;2022-09-16T09:42:38;99742.31;;;16.22;77.14
18749;BME280;9503;53.560;10.246;2022-09-16T09:45:15;99758.69;;;16.20;77.85
18749;BME280;9503;53.560;10.246;2022-09-16T09:47:48;99755.91;;;15.30;83.11
18749;BME280;9503;53.560;10.246;2022-09-16T09:50:21;99743.84;;;15.28;84.37
18749;BME280;9503;53.560;10.246;2022-09-16T09:52:56;99734.66;;;14.87;86.03
18749;BME280;9503;53.560;10.246;2022-09-16T09:55:24;99736.25;;;14.79;88.60
18749;BME280;9503;53.560;10.246;2022-09-16T09:58:07;99736.50;;;14.43;89.50
18749;BME280;9503;53.560;10.246;2022-09-16T10:00:34;99732.34;;;14.48;90.31
18749;BME280;9503;53.560;10.246;2022-09-16T10:03:04;99728.84;;;15.04;89.32
18749;BME280;9503;53.560;10.246;2022-09-16T10:05:32;99733.63;;;15.38;87.30
18749;BME280;9503;53.560;10.246;2022-09-16T10:08:03;99722.50;;;15.44;84.63
18749;BME280;9503;53.560;10.246;2022-09-16T10:10:32;99727.22;;;15.79;83.01
18749;BME280;9503;53.560;10.246;2022-09-16T10:13:07;99721.75;;;16.32;80.65
18749;BME280;9503;53.560;10.246;2022-09-16T10:15:34;99720.50;;;16.95;78.77
18749;BME280;9503;53.560;10.246;2022-09-16T10:18:07;99720.53;;;16.99;74.74
18749;BME280;9503;53.560;10.246;2022-09-16T10:20:37;99724.75;;;16.85;73.49
18749;BME280;9503;53.560;10.246;2022-09-16T10:23:08;99708.88;;;16.41;73.83
18749;BME280;9503;53.560;10.246;2022-09-16T10:25:35;99727.53;;;17.14;72.33
18749;BME280;9503;53.560;10.246;2022-09-16T10:28:04;99726.94;;;17.76;71.23
18749;BME280;9503;53.560;10.246;2022-09-16T10:30:40;99717.16;;;17.16;72.15
18749;BME280;9503;53.560;10.246;2022-09-16T10:33:13;99730.03;;;17.02;73.86
18749;BME280;9503;53.560;10.246;2022-09-16T10:35:51;99711.97;;;17.17;72.53
18749;BME280;9503;53.560;10.246;2022-09-16T10:38:22;99711.28;;;17.50;72.47
18749;BME280;9503;53.560;10.246;2022-09-16T10:40:52;99713.81;;;17.36;72.55
18749;BME280;9503;53.560;10.246;2022-09-16T10:43:20;99714.59;;;17.23;71.49
18749;BME280;9503;53.560;10.246;2022-09-16T10:45:49;99717.50;;;18.07;69.44
18749;BME280;9503;53.560;10.246;2022-09-16T10:48:23;99708.88;;;18.37;66.98
18749;BME280;9503;53.560;10.246;2022-09-16T10:50:55;99701.91;;;17.90;67.67
18749;BME280;9503;53.560;10.246;2022-09-16T10:53:28;99691.41;;;17.51;67.50
18749;BME280;9503;53.560;10.246;2022-09-16T10:55:56;99692.41;;;17.94;67.50
18749;BME280;9503;53.560;10.246;2022-09-16T10:58:23;99683.78;;;18.52;67.17
18749;BME280;9503;53.560;10.246;2022-09-16T11:00:59;99683.78;;;18.44;65.69
18749;BME280;9503;53.560;10.246;2022-09-16T11:04:03;99681.19;;;18.67;66.00
18749;BME280;9503;53.560;10.246;2022-09-16T11:06:44;99667.22;;;19.08;64.75
18749;BME280;9503;53.560;10.246;2022-09-16T11:09:20;99659.50;;;18.86;65.52
18749;BME280;9503;53.560;10.246;2022-09-16T11:11:58;99656.06;;;18.89;64.57
18749;BME280;9503;53.560;10.246;2022-09-16T11:14:38;99651.66;;;19.00;63.81
18749;BME280;9503;53.560;10.246;2022-09-16T11:17:21;99666.44;;;18.63;64.45
18749;BME280;9503;53.560;10.246;2022-09-16T11:20:12;99662.16;;;18.28;65.69
18749;BME280;9503;53.560;10.246;2022-09-16T11:22:46;99673.41;;;18.68;64.52
18749;BME280;9503;53.560;10.246;2022-09-16T11:25:26;99672.53;;;18.46;65.90
18749;BME280;9503;53.560;10.246;2022-09-16T11:28:01;99671.66;;;18.69;65.10
18749;BME280;9503;53.560;10.246;2022-09-16T11:30:38;99657.84;;;18.38;64.07
18749;BME280;9503;53.560;10.246;2022-09-16T11:33:13;99698.19;;;17.20;67.58
18749;BME280;9503;53.560;10.246;2022-09-16T11:36:05;99712.81;;;17.08;71.09
18749;BME280;9503;53.560;10.246;2022-09-16T11:38:41;99710.44;;;16.22;75.66
18749;BME280;9503;53.560;10.246;2022-09-16T11:41:14;99706.75;;;15.24;80.17
18749;BME280;9503;53.560;10.246;2022-09-16T11:44:01;99699.09;;;15.32;82.54
18749;BME280;9503;53.560;10.246;2022-09-16T11:46:38;99699.13;;;15.33;82.27
18749;BME280;9503;53.560;10.246;2022-09-16T11:49:20;99692.25;;;15.34;84.20
18749;BME280;9503;53.560;10.246;2022-09-16T11:52:03;99678.50;;;15.36;83.52
18749;BME280;9503;53.560;10.246;2022-09-16T11:55:06;99672.41;;;15.30;83.56
18749;BME280;9503;53.560;10.246;2022-09-16T11:57:41;99668.72;;;15.85;82.74
18749;BME280;9503;53.560;10.246;2022-09-16T12:00:11;99665.13;;;16.71;80.39
18749;BME280;9503;53.560;10.246;2022-09-16T12:02:52;99672.22;;;17.09;77.65
18749;BME280;9503;53.560;10.246;2022-09-16T12:05:24;99662.69;;;16.99;75.97
18749;BME280;9503;53.560;10.246;2022-09-16T12:07:59;99648.88;;;17.00;74.00
18749;BME280;9503;53.560;10.246;2022-09-16T12:10:35;99658.50;;;17.31;73.18
18749;BME280;9503;53.560;10.246;2022-09-16T12:13:07;99645.63;;;17.62;71.43
18749;BME280;9503;53.560;10.246;2022-09-16T12:15:39;99637.06;;;18.13;69.97
18749;BME280;9503;53.560;10.246;2022-09-16T12:18:12;99624.97;;;17.94;70.05
18749;BME280;9503;53.560;10.246;2022-09-16T12:20:42;99642.28;;;18.01;70.48
18749;BME280;9503;53.560;10.246;2022-09-16T12:23:16;99631.00;;;18.46;67.93
18749;BME280;9503;53.560;10.246;2022-09-16T12:25:46;99624.09;;;17.80;67.11
18749;BME280;9503;53.560;10.246;2022-09-16T12:28:23;99613.63;;;18.79;65.21
18749;BME280;9503;53.560;10.246;2022-09-16T12:30:59;99611.94;;;18.49;64.85
18749;BME280;9503;53.560;10.246;2022-09-16T12:33:32;99613.53;;;19.07;64.83
18749;BME280;9503;53.560;10.246;2022-09-16T12:36:04;99612.81;;;18.66;65.27
18749;BME280;9503;53.560;10.246;2022-09-16T12:38:33;99616.34;;;18.00;67.17
18749;BME280;9503;53.560;10.246;2022-09-16T12:41:11;99653.41;;;17.56;71.39
18749;BME280;9503;53.560;10.246;2022-09-16T12:43:57;99653.94;;;16.81;80.02
18749;BME280;9503;53.560;10.246;2022-09-16T12:46:48;99643.00;;;16.00;82.89
18749;BME280;9503;53.560;10.246;2022-09-16T12:49:34;99632.63;;;15.15;85.97
18749;BME280;9503;53.560;10.246;2022-09-16T12:52:44;99627.75;;;15.40;89.37
18749;BME280;9503;53.560;10.246;2022-09-16T12:55:33;99618.41;;;15.51;90.13
18749;BME280;9503;53.560;10.246;2022-09-16T12:58:14;99611.41;;;16.38;88.72
18749;BME280;9503;53.560;10.246;2022-09-16T13:00:53;99604.84;;;16.95;86.14
18749;BME280;9503;53.560;10.246;2022-09-16T13:03:24;99596.22;;;16.98;84.45
18749;BME280;9503;53.560;10.246;2022-09-16T13:05:53;99606.13;;;16.23;84.88
18749;BME280;9503;53.560;10.246;2022-09-16T13:08:24;99600.50;;;16.96;81.18
18749;BME280;9503;53.560;10.246;2022-09-16T13:10:58;99614.41;;;17.13;79.94
18749;BME280;9503;53.560;10.246;2022-09-16T13:13:31;99636.78;;;16.90;82.06
18749;BME280;9503;53.560;10.246;2022-09-16T13:16:00;99625.75;;;15.99;85.91
18749;BME280;9503;53.560;10.246;2022-09-16T13:18:40;99613.38;;;15.63;90.08